McGrath, AK

6:30 PM AKDT on September 02, 2014 (GMT -0800)
Nikolai AP, Nikolai, AK | Change Station
CLOSE
Current Station
Airport
Location: Nikolai AP, Nikolai, AK,
Elevation: 413 ft
Nearby Weather Stations

Elev 413 ft 63.02 °N, 154.36 °W | Updated 25 minutes ago

Light Rain
Light Rain Mist
46 °F
Feels Like 46 °F
N
0
Wind Variable Wind from North

Today
High -- | Low -- °F
--% Chance of Precip.
Yesterday
High -- | Low -- °F
Precip. -- in
7:09 AM 9:27 PM
First Quarter, 57% visible
Pressure 29.99 in
Visibility 3.0 miles
Clouds Few 100 ft
Mostly Cloudy 2100 ft
Overcast 3400 ft
Dew Point 43 °F
Humidity 87%
Rainfall 0.41 in
Snow Depth Not available.
UV 1 out of 12
Pollen Not available.
Air Quality Not available.
Flu Activity Not available.
SPECI PAFS 030205Z AUTO 00000KT 3SM -RA BR FEW001 BKN021 OVC034 08/06 A2999 RMK AO2 TSNO P0000 $

More Conditions Fewer Conditions

Pressure 29.99 in
Visibility 3.0 miles
Clouds Few 100 ft
Mostly Cloudy 2100 ft
Overcast 3400 ft
Dew Point 43 °F
Humidity 87%
Rainfall 0.41 in
Snow Depth Not available.
UV 1 out of 12
Pollen Not available.
Air Quality Not available.
Flu Activity Not available.
SPECI PAFS 030205Z AUTO 00000KT 3SM -RA BR FEW001 BKN021 OVC034 08/06 A2999 RMK AO2 TSNO P0000 $

More Conditions Fewer Conditions

10-Day Weather Forecast

Almanac

Astronomy

Sep. 02, 2014 Rise Set
Actual Time 7:09 AM AKDT 9:27 PM AKDT
Civil Twilight 6:19 AM AKDT 10:16 PM AKDT
Nautical Twilight 5:12 AM AKDT 11:23 PM AKDT
Astronomical Twilight 3:28 AM AKDT 1:01 AM AKDT
Moon 5:26 PM AKDT (9/2) No Moon Set
Length of Visible Light 15h 57m
Length of Day
14h 17m
Tomorrow will be 6m 6s shorter.
First Quarter, 57% of the Moon is Illuminated
Today
First Quarter
Sep 8
Full
Sep 15
Last Quarter
Sep 24
New
Oct 1
First Quarter

Today's Extremes

State Highs State Lows

Community

WunderPhotos

Upload Photos

1,749,845 photos uploaded!

Nearby

Snow Depth

Station Depth Elevation
Susitna Valley High 2 in 375 ft
Point Mackenzie 1 in 200 ft
Indian Pass 1 in 2300 ft
Summit Creek 0 in 1400 ft
Turnagain Pass 1 in 1880 ft

Earthquake Activity

City Distance Mag. Time & Date
No recent earthquake activity has been reported nearby.
Minimum magnitude displayed is 2.5.

Coastal Water Temperatures

Place Temperature
No Stations Reporting

Nearby Weather Stations